createdAt,value
2023-04-03T00:02:10.744Z,7.51
2023-04-03T00:04:37.076Z,7.48
2023-04-03T00:07:03.378Z,7.45
2023-04-03T00:09:29.633Z,7.43
2023-04-03T00:11:55.918Z,7.43
2023-04-03T00:14:22.184Z,7.40
2023-04-03T00:16:48.489Z,7.39
2023-04-03T00:19:14.769Z,7.42
2023-04-03T00:21:41.046Z,7.46
2023-04-03T00:24:07.316Z,7.44
2023-04-03T00:26:33.593Z,7.38
2023-04-03T00:28:59.894Z,7.42
2023-04-03T00:31:26.183Z,7.38
2023-04-03T00:33:52.471Z,7.37
2023-04-03T00:36:18.769Z,7.36
2023-04-03T00:38:45.069Z,7.37
2023-04-03T00:41:11.324Z,7.34
2023-04-03T00:43:37.601Z,7.23
2023-04-03T00:46:03.921Z,7.23
2023-04-03T00:48:30.243Z,7.23
2023-04-03T00:50:56.540Z,7.27
2023-04-03T00:53:22.850Z,7.31
2023-04-03T00:55:49.114Z,7.35
2023-04-03T00:58:15.386Z,7.40
2023-04-03T01:00:41.655Z,7.38
2023-04-03T01:03:07.981Z,7.38
2023-04-03T01:05:34.252Z,7.41
2023-04-03T01:08:00.552Z,7.48
2023-04-03T01:10:26.807Z,7.51
2023-04-03T01:12:53.068Z,7.52
2023-04-03T01:15:19.331Z,7.56
2023-04-03T01:17:45.672Z,7.62
2023-04-03T01:20:11.977Z,7.59
2023-04-03T01:22:38.257Z,7.59
2023-04-03T01:25:04.513Z,7.56
2023-04-03T01:27:30.764Z,7.53
2023-04-03T01:29:57.026Z,7.57
2023-04-03T01:32:23.277Z,7.56
2023-04-03T01:34:49.556Z,7.63
2023-04-03T01:37:15.802Z,7.46
2023-04-03T01:39:42.071Z,7.54
2023-04-03T01:42:08.346Z,7.67
2023-04-03T01:44:34.632Z,7.72
2023-04-03T01:47:00.887Z,7.58
2023-04-03T01:49:27.145Z,7.36
2023-04-03T01:51:53.411Z,7.60
2023-04-03T01:54:19.683Z,7.17
2023-04-03T01:56:45.948Z,7.17
2023-04-03T01:59:12.200Z,7.24
2023-04-03T02:01:38.597Z,7.24
2023-04-03T02:04:05.012Z,7.45
2023-04-03T02:06:31.313Z,7.64
2023-04-03T02:08:57.577Z,7.62
2023-04-03T02:11:23.847Z,7.71
2023-04-03T02:13:50.146Z,7.82
2023-04-03T02:16:16.432Z,7.88
2023-04-03T02:18:42.696Z,7.81
2023-04-03T02:21:08.992Z,7.88
2023-04-03T02:23:35.291Z,7.95
2023-04-03T02:26:01.555Z,7.97
2023-04-03T02:28:27.795Z,7.96
2023-04-03T02:30:54.053Z,7.90
2023-04-03T02:33:20.335Z,7.94
2023-04-03T02:35:46.617Z,7.97
2023-04-03T02:38:12.919Z,7.96
2023-04-03T02:40:39.420Z,8.01
2023-04-03T02:43:05.810Z,7.95
2023-04-03T02:45:32.087Z,7.83
2023-04-03T02:47:58.378Z,7.84
2023-04-03T02:50:24.683Z,7.64
2023-04-03T02:52:50.943Z,7.63
2023-04-03T02:55:17.249Z,7.81
2023-04-03T02:57:43.512Z,7.70
2023-04-03T03:00:09.776Z,7.65
2023-04-03T03:02:36.077Z,7.61
2023-04-03T03:05:02.495Z,7.55
2023-04-03T03:07:28.823Z,7.75
2023-04-03T03:09:55.095Z,7.70
2023-04-03T03:12:21.405Z,7.80
2023-04-03T03:14:47.666Z,7.99
2023-04-03T03:17:13.927Z,8.04
2023-04-03T03:19:40.191Z,7.73
2023-04-03T03:22:06.432Z,7.79
2023-04-03T03:24:32.693Z,8.03
2023-04-03T03:26:58.978Z,7.95
2023-04-03T03:29:25.269Z,8.02
2023-04-03T03:31:51.641Z,7.92
2023-04-03T03:34:17.997Z,7.95
2023-04-03T03:36:44.243Z,7.95
2023-04-03T03:39:10.508Z,8.16
2023-04-03T03:41:36.751Z,8.20
2023-04-03T03:44:02.996Z,7.92
2023-04-03T03:46:29.308Z,7.99
2023-04-03T03:48:55.598Z,8.06
2023-04-03T03:51:21.877Z,8.04
2023-04-03T03:53:48.240Z,7.64
2023-04-03T03:56:14.513Z,7.36
2023-04-03T03:58:40.775Z,7.46
2023-04-03T04:01:07.103Z,7.35
2023-04-03T04:03:33.495Z,7.27
2023-04-03T04:05:59.829Z,7.14
2023-04-03T04:08:26.133Z,6.82
2023-04-03T04:10:52.414Z,7.08
2023-04-03T04:13:18.659Z,6.99
2023-04-03T04:15:44.919Z,6.55
2023-04-03T04:18:11.196Z,6.65
2023-04-03T04:20:37.452Z,6.94
2023-04-03T04:23:03.698Z,6.64
2023-04-03T04:25:30.140Z,6.68
2023-04-03T04:27:56.408Z,6.68
2023-04-03T04:30:22.669Z,6.68
2023-04-03T04:32:48.958Z,6.18
2023-04-03T04:35:16.942Z,6.20
2023-04-03T04:37:43.388Z,6.27
2023-04-03T04:40:09.700Z,6.34
2023-04-03T04:42:35.950Z,6.51
2023-04-03T04:45:02.212Z,6.32
2023-04-03T04:47:28.491Z,6.40
2023-04-03T04:49:54.763Z,6.32
2023-04-03T04:52:21.022Z,6.35
2023-04-03T04:54:47.278Z,6.29
2023-04-03T04:57:13.595Z,6.30
2023-04-03T04:59:39.905Z,6.06
2023-04-03T05:02:06.232Z,5.84
2023-04-03T05:04:32.532Z,5.76
2023-04-03T05:06:58.847Z,5.69
2023-04-03T05:09:25.123Z,5.88
2023-04-03T05:11:51.390Z,5.89
2023-04-03T05:14:17.652Z,6.26
2023-04-03T05:16:43.946Z,5.95
2023-04-03T05:19:10.255Z,5.89
2023-04-03T05:21:36.558Z,6.05
2023-04-03T05:24:02.804Z,6.14
2023-04-03T05:26:29.082Z,6.43
2023-04-03T05:28:55.424Z,6.24
2023-04-03T05:31:21.712Z,6.15
2023-04-03T05:33:48.003Z,5.90
2023-04-03T05:36:14.318Z,5.98
2023-04-03T05:38:40.910Z,5.69
2023-04-03T05:41:07.248Z,5.76
2023-04-03T05:43:33.499Z,5.66
2023-04-03T05:45:59.830Z,5.84
2023-04-03T05:48:26.180Z,5.68
2023-04-03T05:50:52.442Z,5.75
2023-04-03T05:53:18.684Z,5.59
2023-04-03T05:55:44.949Z,5.82
2023-04-03T05:58:11.871Z,5.72
2023-04-03T06:00:38.198Z,5.98
2023-04-03T06:03:04.651Z,5.93
2023-04-03T06:05:30.970Z,5.70
2023-04-03T06:07:57.296Z,5.99
2023-04-03T06:10:23.565Z,5.94
2023-04-03T06:12:49.839Z,6.01
2023-04-03T06:15:16.151Z,5.95
2023-04-03T06:17:42.545Z,6.01
2023-04-03T06:20:08.858Z,6.10
2023-04-03T06:22:35.134Z,5.84
2023-04-03T06:25:01.398Z,6.09
2023-04-03T06:27:27.662Z,5.81
2023-04-03T06:29:53.917Z,6.01
2023-04-03T06:32:20.168Z,6.12
2023-04-03T06:34:46.436Z,6.16
2023-04-03T06:37:12.707Z,6.06
2023-04-03T06:39:38.990Z,6.33
2023-04-03T06:42:05.242Z,6.43
2023-04-03T06:44:31.519Z,6.42
2023-04-03T06:46:57.822Z,6.54
2023-04-03T06:49:24.098Z,6.43
2023-04-03T06:51:50.602Z,6.42
2023-04-03T06:54:16.952Z,6.17
2023-04-03T06:56:43.240Z,5.99
2023-04-03T06:59:09.514Z,6.16
2023-04-03T07:01:35.859Z,5.93
2023-04-03T07:04:02.118Z,5.86
2023-04-03T07:06:28.407Z,5.91
2023-04-03T07:08:54.650Z,5.74
2023-04-03T07:11:20.917Z,5.84
2023-04-03T07:13:47.196Z,5.93
2023-04-03T07:16:13.534Z,6.23
2023-04-03T07:18:39.904Z,5.97
2023-04-03T07:21:06.176Z,6.02
2023-04-03T07:23:32.461Z,6.03
2023-04-03T07:25:58.723Z,5.99
2023-04-03T07:28:25.012Z,5.76
2023-04-03T07:30:51.291Z,5.77
2023-04-03T07:33:17.538Z,5.69
2023-04-03T07:35:43.814Z,5.54
2023-04-03T07:38:10.123Z,5.56
2023-04-03T07:40:36.376Z,5.79
2023-04-03T07:43:02.648Z,6.00
2023-04-03T07:45:28.941Z,6.03
2023-04-03T07:47:55.268Z,6.19
2023-04-03T07:50:21.552Z,6.16
2023-04-03T07:52:47.838Z,5.70
2023-04-03T07:55:14.087Z,5.97
2023-04-03T07:57:40.378Z,6.15
2023-04-03T08:00:06.620Z,6.18
2023-04-03T08:02:32.903Z,6.35
2023-04-03T08:04:59.274Z,6.13
2023-04-03T08:07:25.584Z,6.44
2023-04-03T08:09:51.892Z,6.20
2023-04-03T08:12:18.150Z,6.06
2023-04-03T08:14:44.445Z,6.25
2023-04-03T08:17:10.740Z,6.31
2023-04-03T08:19:37.012Z,6.43
2023-04-03T08:22:03.278Z,6.71
2023-04-03T08:24:29.537Z,6.89
2023-04-03T08:26:55.787Z,7.00
2023-04-03T08:29:22.078Z,6.92
2023-04-03T08:31:48.449Z,6.74
2023-04-03T08:34:14.726Z,6.86
2023-04-03T08:36:41.002Z,6.88
2023-04-03T08:39:07.257Z,7.06
2023-04-03T08:41:33.514Z,6.60
2023-04-03T08:43:59.791Z,7.00
2023-04-03T08:46:26.041Z,6.92
2023-04-03T08:48:52.393Z,6.78
2023-04-03T08:51:18.625Z,6.52
2023-04-03T08:53:44.909Z,6.72
2023-04-03T08:56:11.154Z,6.89
2023-04-03T08:58:37.424Z,6.72
2023-04-03T09:01:04.749Z,6.91
2023-04-03T09:03:31.167Z,6.81
2023-04-03T09:05:57.529Z,6.99
2023-04-03T09:08:23.811Z,7.16
2023-04-03T09:10:50.087Z,7.09
2023-04-03T09:13:16.355Z,6.91
2023-04-03T09:15:42.641Z,7.16
2023-04-03T09:18:08.950Z,6.98
2023-04-03T09:20:35.323Z,7.19
2023-04-03T09:23:01.750Z,6.99
2023-04-03T09:25:28.279Z,7.06
2023-04-03T09:27:54.942Z,6.96
2023-04-03T09:30:21.194Z,6.83
2023-04-03T09:32:50.505Z,6.90
2023-04-03T09:35:20.534Z,7.16
2023-04-03T09:37:49.516Z,6.84
2023-04-03T09:40:15.818Z,6.95
2023-04-03T09:42:44.077Z,6.39
2023-04-03T09:45:10.510Z,6.54
2023-04-03T09:47:36.781Z,6.56
2023-04-03T09:50:03.054Z,6.58
2023-04-03T09:52:29.323Z,6.58
2023-04-03T09:54:55.576Z,6.67
2023-04-03T09:57:21.884Z,6.58
2023-04-03T09:59:48.159Z,6.65
2023-04-03T10:02:14.435Z,6.94
2023-04-03T10:04:40.780Z,6.95
2023-04-03T10:07:07.141Z,7.19
2023-04-03T10:09:33.431Z,7.29
2023-04-03T10:11:59.677Z,7.33
2023-04-03T10:14:25.960Z,7.54
2023-04-03T10:16:52.245Z,7.46
2023-04-03T10:19:18.564Z,7.35
2023-04-03T10:21:44.847Z,7.32
2023-04-03T10:24:11.145Z,7.33
2023-04-03T10:26:37.385Z,7.45
2023-04-03T10:29:03.852Z,7.57
2023-04-03T10:31:30.239Z,7.60
2023-04-03T10:33:56.592Z,7.41
2023-04-03T10:36:22.873Z,7.29
2023-04-03T10:38:49.145Z,6.87
2023-04-03T10:41:16.491Z,7.06
2023-04-03T10:43:43.864Z,7.08
2023-04-03T10:46:10.161Z,7.22
2023-04-03T10:48:36.421Z,7.36
2023-04-03T10:51:02.715Z,7.42
2023-04-03T10:53:28.988Z,7.41
2023-04-03T10:55:55.282Z,7.38
2023-04-03T10:58:21.562Z,7.25
2023-04-03T11:00:47.845Z,7.31
2023-04-03T11:03:14.244Z,7.50
2023-04-03T11:05:40.798Z,7.80
2023-04-03T11:08:07.186Z,8.01
2023-04-03T11:10:33.458Z,7.88
2023-04-03T11:12:59.726Z,8.16
2023-04-03T11:15:25.999Z,8.28
2023-04-03T11:17:52.289Z,8.23
2023-04-03T11:20:18.576Z,8.22
2023-04-03T11:22:44.830Z,8.55
2023-04-03T11:25:11.090Z,8.38
2023-04-03T11:27:37.339Z,8.26
2023-04-03T11:30:03.612Z,8.41
2023-04-03T11:32:29.910Z,8.04
2023-04-03T11:34:56.196Z,7.90
2023-04-03T11:37:22.471Z,8.09
2023-04-03T11:39:48.725Z,8.16
2023-04-03T11:42:14.991Z,7.74
2023-04-03T11:44:41.275Z,7.58
2023-04-03T11:47:07.612Z,7.64
2023-04-03T11:49:33.878Z,7.89
2023-04-03T11:52:00.141Z,7.70
2023-04-03T11:54:29.972Z,7.44
2023-04-03T11:56:58.753Z,7.56
2023-04-03T11:59:25.006Z,7.46
2023-04-03T12:01:51.345Z,7.60
2023-04-03T12:04:17.794Z,7.98
2023-04-03T12:06:44.205Z,8.26
2023-04-03T12:09:10.483Z,8.33
2023-04-03T12:11:36.813Z,8.61
2023-04-03T12:14:03.093Z,8.62
2023-04-03T12:16:29.362Z,8.55
2023-04-03T12:18:55.695Z,8.76
2023-04-03T12:21:21.952Z,8.75
2023-04-03T12:23:48.329Z,8.70
2023-04-03T12:26:14.645Z,8.57
2023-04-03T12:28:40.947Z,8.64
2023-04-03T12:31:07.265Z,8.50
2023-04-03T12:33:33.644Z,8.50
2023-04-03T12:36:01.777Z,8.48
2023-04-03T12:38:28.340Z,8.37
2023-04-03T12:40:54.660Z,8.55
2023-04-03T12:43:20.925Z,8.94
2023-04-03T12:45:47.224Z,8.79
2023-04-03T12:48:13.524Z,8.80
2023-04-03T12:50:39.849Z,8.95
2023-04-03T12:53:06.134Z,9.18
2023-04-03T12:55:34.221Z,9.28
2023-04-03T12:58:00.564Z,9.38
2023-04-03T13:00:26.840Z,9.60
2023-04-03T13:02:53.177Z,9.65
2023-04-03T13:05:19.450Z,9.90
2023-04-03T13:07:45.731Z,9.94
2023-04-03T13:10:12.018Z,9.65
2023-04-03T13:12:38.299Z,9.32
2023-04-03T13:15:04.616Z,9.38
2023-04-03T13:17:31.034Z,9.80
2023-04-03T13:19:59.694Z,10.06
2023-04-03T13:22:26.009Z,9.91
2023-04-03T13:24:52.294Z,9.99
2023-04-03T13:27:18.590Z,10.14
2023-04-03T13:29:44.851Z,10.41
2023-04-03T13:32:11.226Z,9.95
2023-04-03T13:34:37.517Z,10.01
2023-04-03T13:37:03.784Z,10.36
2023-04-03T13:39:30.070Z,10.42
2023-04-03T13:41:56.323Z,10.42
2023-04-03T13:44:22.596Z,10.60
2023-04-03T13:46:48.883Z,10.95
2023-04-03T13:49:15.176Z,11.23
2023-04-03T13:51:41.448Z,11.03
2023-04-03T13:54:07.711Z,11.17
2023-04-03T13:56:33.994Z,11.23
2023-04-03T13:59:00.301Z,11.31
2023-04-03T14:01:26.591Z,11.51
2023-04-03T14:03:52.903Z,11.77
2023-04-03T14:06:19.270Z,11.69
2023-04-03T14:08:45.570Z,11.71
2023-04-03T14:11:12.093Z,11.81
2023-04-03T14:13:38.394Z,11.92
2023-04-03T14:16:15.192Z,11.61
2023-04-03T14:18:42.318Z,11.56
2023-04-03T14:21:08.650Z,11.42
2023-04-03T14:23:34.912Z,11.29
2023-04-03T14:26:01.182Z,11.31
2023-04-03T14:28:27.451Z,11.20
2023-04-03T14:30:53.759Z,11.07
2023-04-03T14:33:20.057Z,11.17
2023-04-03T14:35:46.325Z,10.86
2023-04-03T14:38:12.606Z,10.89
2023-04-03T14:40:39.130Z,11.25
2023-04-03T14:43:05.481Z,11.07
2023-04-03T14:45:31.742Z,11.17
2023-04-03T14:47:58.230Z,11.20
2023-04-03T14:50:24.718Z,11.16
2023-04-03T14:52:51.000Z,11.14
2023-04-03T14:55:17.321Z,10.92
2023-04-03T14:57:43.626Z,11.19
2023-04-03T15:00:09.922Z,11.18
2023-04-03T15:02:36.392Z,10.83
2023-04-03T15:05:02.938Z,10.76
2023-04-03T15:07:29.208Z,10.36
2023-04-03T15:09:55.503Z,10.63
2023-04-03T15:12:21.786Z,10.50
2023-04-03T15:14:53.571Z,10.64
2023-04-03T15:17:27.232Z,10.82
2023-04-03T15:19:53.516Z,10.65
2023-04-03T15:22:19.793Z,10.81
2023-04-03T15:24:46.110Z,10.73
2023-04-03T15:27:12.382Z,10.54
2023-04-03T15:29:38.665Z,10.50
2023-04-03T15:32:05.002Z,10.64
2023-04-03T15:34:31.299Z,10.27
2023-04-03T15:36:57.649Z,10.81
2023-04-03T15:39:23.941Z,10.48
2023-04-03T15:41:50.239Z,10.40
2023-04-03T15:44:16.514Z,10.87
2023-04-03T15:46:42.846Z,11.06
2023-04-03T15:49:09.108Z,11.01
2023-04-03T15:51:35.386Z,11.05
2023-04-03T15:54:01.690Z,11.06
2023-04-03T15:56:28.024Z,11.47
2023-04-03T15:58:54.352Z,11.39
2023-04-03T16:01:20.611Z,11.67
2023-04-03T16:03:46.921Z,11.24
2023-04-03T16:06:13.211Z,11.14
2023-04-03T16:08:39.485Z,11.42
2023-04-03T16:11:05.755Z,11.75
2023-04-03T16:13:32.040Z,11.94
2023-04-03T16:15:58.392Z,12.04
2023-04-03T16:18:24.717Z,11.09
2023-04-03T16:20:50.980Z,10.87
2023-04-03T16:25:44.624Z,10.91
2023-04-03T16:28:10.894Z,10.65
2023-04-03T16:30:37.176Z,10.82
2023-04-03T16:33:03.481Z,11.10
2023-04-03T16:35:29.832Z,11.39
2023-04-03T16:37:56.094Z,11.42
2023-04-03T16:40:22.432Z,11.13
2023-04-03T16:42:48.694Z,11.22
2023-04-03T16:45:14.958Z,11.58
2023-04-03T16:47:41.299Z,11.20
2023-04-03T16:50:07.661Z,11.27
2023-04-03T16:52:33.976Z,12.05
2023-04-03T16:55:00.240Z,12.13
2023-04-03T16:57:26.520Z,12.94
2023-04-03T16:59:52.768Z,12.66
2023-04-03T17:02:19.062Z,12.27
2023-04-03T17:04:45.366Z,12.32
2023-04-03T17:07:11.623Z,12.01
2023-04-03T17:09:37.901Z,11.57
2023-04-03T17:12:04.179Z,9.80
2023-04-03T17:14:30.455Z,8.81
2023-04-03T17:16:56.857Z,8.51
2023-04-03T17:19:23.167Z,8.58
2023-04-03T17:21:49.413Z,8.18
2023-04-03T17:24:15.664Z,7.74
2023-04-03T17:26:41.991Z,7.85
2023-04-03T17:29:08.266Z,7.54
2023-04-03T17:31:34.616Z,7.54
2023-04-03T17:34:00.924Z,7.55
2023-04-03T17:36:27.230Z,7.52
2023-04-03T17:38:53.522Z,7.36
2023-04-03T17:41:19.809Z,7.07
2023-04-03T17:43:46.077Z,6.81
2023-04-03T17:46:12.403Z,6.46
2023-04-03T17:48:38.701Z,6.63
2023-04-03T17:51:04.971Z,6.31
2023-04-03T17:53:31.239Z,6.30
2023-04-03T17:55:57.507Z,6.07
2023-04-03T17:58:23.805Z,5.89
2023-04-03T18:00:50.100Z,5.88
2023-04-03T18:03:16.389Z,5.64
2023-04-03T18:05:42.748Z,5.41
2023-04-03T18:08:09.067Z,5.35
2023-04-03T18:10:35.332Z,5.20
2023-04-03T18:13:01.651Z,5.15
2023-04-03T18:15:27.911Z,5.24
2023-04-03T18:17:54.284Z,5.06
2023-04-03T18:20:20.574Z,4.99
2023-04-03T18:22:46.850Z,4.98
2023-04-03T18:25:13.180Z,4.97
2023-04-03T18:27:39.457Z,5.06
2023-04-03T18:30:05.780Z,4.98
2023-04-03T18:32:32.152Z,4.53
2023-04-03T18:34:58.464Z,4.56
2023-04-03T18:37:24.817Z,4.72
2023-04-03T18:39:51.081Z,4.78
2023-04-03T18:42:17.334Z,4.75
2023-04-03T18:44:43.697Z,4.65
2023-04-03T18:47:09.975Z,4.50
2023-04-03T18:49:36.229Z,4.45
2023-04-03T18:52:02.532Z,4.50
2023-04-03T18:54:28.803Z,4.39
2023-04-03T18:56:55.052Z,4.43
2023-04-03T18:59:21.353Z,4.26
2023-04-03T19:01:47.668Z,4.08
2023-04-03T19:04:13.937Z,4.23
2023-04-03T19:06:40.241Z,4.21
2023-04-03T19:09:06.494Z,4.07
2023-04-03T19:11:32.775Z,4.04
2023-04-03T19:14:14.577Z,4.21
2023-04-03T19:16:42.735Z,4.42
2023-04-03T19:19:09.145Z,4.40
2023-04-03T19:21:35.464Z,4.48
2023-04-03T19:24:01.736Z,4.58
2023-04-03T19:26:28.056Z,4.51
2023-04-03T19:28:54.369Z,4.30
2023-04-03T19:31:20.691Z,4.09
2023-04-03T19:33:47.071Z,4.10
2023-04-03T19:36:13.358Z,4.30
2023-04-03T19:38:39.661Z,4.19
2023-04-03T19:41:06.096Z,4.10
2023-04-03T19:43:32.505Z,4.05
2023-04-03T19:45:58.825Z,4.01
2023-04-03T19:48:25.135Z,3.82
2023-04-03T19:50:51.499Z,4.00
2023-04-03T19:53:17.883Z,4.05
2023-04-03T19:55:44.204Z,4.11
2023-04-03T19:58:10.496Z,3.91
2023-04-03T20:00:36.760Z,3.84
2023-04-03T20:03:03.090Z,3.70
2023-04-03T20:05:29.384Z,3.64
2023-04-03T20:07:55.687Z,3.75
2023-04-03T20:10:21.987Z,3.68
2023-04-03T20:12:48.240Z,3.81
2023-04-03T20:15:14.503Z,3.51
2023-04-03T20:17:40.817Z,3.63
2023-04-03T20:20:07.103Z,3.55
2023-04-03T20:22:33.366Z,3.65
2023-04-03T20:25:06.085Z,3.61
2023-04-03T20:27:32.937Z,3.69
2023-04-03T20:29:59.175Z,3.61
2023-04-03T20:32:25.494Z,3.66
2023-04-03T20:35:02.979Z,3.49
2023-04-03T20:37:30.406Z,3.64
2023-04-03T20:39:56.657Z,3.74
2023-04-03T20:42:22.972Z,3.70
2023-04-03T20:44:49.233Z,3.93
2023-04-03T20:47:15.510Z,3.66
2023-04-03T20:49:41.786Z,3.53
2023-04-03T20:52:08.043Z,3.68
2023-04-03T20:54:34.332Z,3.41
2023-04-03T20:57:00.571Z,3.44
2023-04-03T20:59:26.881Z,3.71
2023-04-03T21:01:53.184Z,3.92
2023-04-03T21:04:19.570Z,4.17
2023-04-03T21:06:45.905Z,3.77
2023-04-03T21:09:12.158Z,3.96
2023-04-03T21:11:38.408Z,4.02
2023-04-03T21:14:04.672Z,4.02
2023-04-03T21:16:30.965Z,3.68
2023-04-03T21:18:57.251Z,3.58
2023-04-03T21:21:23.540Z,3.75
2023-04-03T21:23:49.820Z,3.87
2023-04-03T21:26:16.094Z,4.05
2023-04-03T21:28:42.356Z,3.73
2023-04-03T21:31:08.733Z,3.71
2023-04-03T21:33:35.022Z,3.62
2023-04-03T21:36:01.268Z,3.39
2023-04-03T21:38:27.537Z,3.15
2023-04-03T21:40:53.819Z,3.39
2023-04-03T21:43:20.074Z,3.42
2023-04-03T21:45:46.407Z,3.41
2023-04-03T21:48:12.835Z,3.45
2023-04-03T21:50:39.362Z,3.64
2023-04-03T21:53:05.820Z,3.67
2023-04-03T21:55:32.085Z,3.45
2023-04-03T21:57:58.351Z,3.66
2023-04-03T22:00:24.700Z,3.86
2023-04-03T22:02:57.663Z,3.93
2023-04-03T22:05:30.296Z,3.81
2023-04-03T22:07:56.604Z,4.07
2023-04-03T22:10:22.934Z,4.24
2023-04-03T22:12:49.206Z,4.49
2023-04-03T22:15:15.477Z,4.29
2023-04-03T22:17:41.809Z,3.47
2023-04-03T22:20:08.082Z,3.70
2023-04-03T22:22:34.337Z,3.73
2023-04-03T22:25:00.636Z,3.46
2023-04-03T22:27:26.916Z,3.55
2023-04-03T22:29:53.190Z,3.67
2023-04-03T22:32:19.464Z,3.59
2023-04-03T22:34:45.817Z,3.75
2023-04-03T22:37:12.070Z,3.39
2023-04-03T22:39:38.391Z,3.58
2023-04-03T22:42:04.634Z,3.49
2023-04-03T22:44:36.095Z,3.51
2023-04-03T22:47:02.918Z,3.33
2023-04-03T22:49:29.203Z,3.43
2023-04-03T22:51:55.463Z,3.46
2023-04-03T22:54:21.719Z,3.17
2023-04-03T22:56:48.012Z,3.15
2023-04-03T22:59:14.331Z,3.30
2023-04-03T23:01:40.621Z,3.56
2023-04-03T23:04:07.029Z,3.33
2023-04-03T23:06:33.341Z,3.39
2023-04-03T23:08:59.615Z,3.37
2023-04-03T23:11:25.877Z,3.23
2023-04-03T23:13:52.143Z,3.18
2023-04-03T23:16:18.410Z,3.28
2023-04-03T23:18:44.712Z,3.05
2023-04-03T23:21:11.063Z,3.16
2023-04-03T23:23:37.312Z,3.23
2023-04-03T23:26:03.590Z,3.45
2023-04-03T23:28:29.874Z,2.91
2023-04-03T23:30:56.136Z,3.08
2023-04-03T23:33:22.381Z,3.18
2023-04-03T23:35:48.734Z,3.23
2023-04-03T23:38:14.997Z,3.17
2023-04-03T23:40:41.406Z,3.40
2023-04-03T23:43:07.747Z,3.51
2023-04-03T23:45:34.026Z,3.26
2023-04-03T23:48:00.304Z,3.37
2023-04-03T23:50:26.595Z,3.11
2023-04-03T23:52:52.872Z,2.95
2023-04-03T23:55:19.153Z,3.13
2023-04-03T23:57:45.422Z,3.09
